sensor_id;sensor_type;location;lat;lon;timestamp;pressure;altitude;pressure_sealevel;temperature;humidity
24422;BME280;12600;53.326;-6.298;2023-07-13T00:02:48;100923.53;;;16.57;71.31
24422;BME280;12600;53.326;-6.298;2023-07-13T00:05:37;100928.72;;;16.59;71.38
24422;BME280;12600;53.326;-6.298;2023-07-13T00:08:30;100924.69;;;16.56;71.37
24422;BME280;12600;53.326;-6.298;2023-07-13T00:11:20;100940.22;;;16.61;71.30
24422;BME280;12600;53.326;-6.298;2023-07-13T00:14:11;100926.50;;;16.52;71.25
24422;BME280;12600;53.326;-6.298;2023-07-13T00:17:00;100939.41;;;16.60;71.16
24422;BME280;12600;53.326;-6.298;2023-07-13T00:19:51;100930.78;;;16.49;71.65
24422;BME280;12600;53.326;-6.298;2023-07-13T00:22:40;100922.41;;;16.46;71.53
24422;BME280;12600;53.326;-6.298;2023-07-13T00:25:30;100928.38;;;16.48;71.73
24422;BME280;12600;53.326;-6.298;2023-07-13T00:28:19;100924.66;;;16.44;71.61
24422;BME280;12600;53.326;-6.298;2023-07-13T00:31:11;100925.16;;;16.46;71.45
24422;BME280;12600;53.326;-6.298;2023-07-13T00:34:02;100928.00;;;16.49;71.38
24422;BME280;12600;53.326;-6.298;2023-07-13T00:36:54;100937.78;;;16.47;71.65
24422;BME280;12600;53.326;-6.298;2023-07-13T00:39:43;100926.63;;;16.43;71.43
24422;BME280;12600;53.326;-6.298;2023-07-13T00:42:33;100935.03;;;16.47;71.21
24422;BME280;12600;53.326;-6.298;2023-07-13T00:46:15;100937.44;;;16.48;71.46
24422;BME280;12600;53.326;-6.298;2023-07-13T00:49:07;100940.09;;;16.45;71.48
24422;BME280;12600;53.326;-6.298;2023-07-13T00:52:03;100924.22;;;16.42;71.39
24422;BME280;12600;53.326;-6.298;2023-07-13T00:54:55;100942.59;;;16.50;71.74
24422;BME280;12600;53.326;-6.298;2023-07-13T00:57:45;100940.78;;;16.54;71.55
24422;BME280;12600;53.326;-6.298;2023-07-13T01:00:36;100924.34;;;16.45;71.65
24422;BME280;12600;53.326;-6.298;2023-07-13T01:03:27;100937.00;;;16.59;71.47
24422;BME280;12600;53.326;-6.298;2023-07-13T01:06:19;100931.47;;;16.59;71.52
24422;BME280;12600;53.326;-6.298;2023-07-13T01:09:11;100931.38;;;16.55;71.38
24422;BME280;12600;53.326;-6.298;2023-07-13T01:12:01;100919.41;;;16.51;71.25
24422;BME280;12600;53.326;-6.298;2023-07-13T01:14:57;100917.13;;;16.53;71.17
24422;BME280;12600;53.326;-6.298;2023-07-13T01:17:48;100924.59;;;16.53;71.09
24422;BME280;12600;53.326;-6.298;2023-07-13T01:20:38;100932.75;;;16.61;70.88
24422;BME280;12600;53.326;-6.298;2023-07-13T01:23:30;100928.38;;;16.60;70.92
24422;BME280;12600;53.326;-6.298;2023-07-13T01:26:20;100932.75;;;16.61;70.74
24422;BME280;12600;53.326;-6.298;2023-07-13T01:29:10;100932.16;;;16.56;70.76
24422;BME280;12600;53.326;-6.298;2023-07-13T01:31:59;100920.19;;;16.51;70.78
24422;BME280;12600;53.326;-6.298;2023-07-13T01:34:49;100914.78;;;16.43;70.97
24422;BME280;12600;53.326;-6.298;2023-07-13T01:37:39;100912.81;;;16.43;70.66
24422;BME280;12600;53.326;-6.298;2023-07-13T01:40:30;100919.84;;;16.41;70.60
24422;BME280;12600;53.326;-6.298;2023-07-13T01:43:19;100923.41;;;16.41;70.64
24422;BME280;12600;53.326;-6.298;2023-07-13T01:46:09;100920.66;;;16.41;70.64
24422;BME280;12600;53.326;-6.298;2023-07-13T01:49:14;100914.88;;;16.34;70.37
24422;BME280;12600;53.326;-6.298;2023-07-13T01:52:05;100915.03;;;16.38;70.27
24422;BME280;12600;53.326;-6.298;2023-07-13T01:54:54;100913.97;;;16.30;70.54
24422;BME280;12600;53.326;-6.298;2023-07-13T01:57:45;100922.69;;;16.32;70.68
24422;BME280;12600;53.326;-6.298;2023-07-13T02:00:34;100912.56;;;16.24;70.69
24422;BME280;12600;53.326;-6.298;2023-07-13T02:03:24;100915.69;;;16.22;70.81
24422;BME280;12600;53.326;-6.298;2023-07-13T02:06:14;100918.28;;;16.19;71.01
24422;BME280;12600;53.326;-6.298;2023-07-13T02:09:04;100911.41;;;16.13;70.95
24422;BME280;12600;53.326;-6.298;2023-07-13T02:11:53;100911.25;;;16.09;71.05
24422;BME280;12600;53.326;-6.298;2023-07-13T02:14:44;100923.50;;;16.20;70.95
24422;BME280;12600;53.326;-6.298;2023-07-13T02:17:34;100922.78;;;16.23;71.26
24422;BME280;12600;53.326;-6.298;2023-07-13T02:20:24;100924.41;;;16.25;71.08
24422;BME280;12600;53.326;-6.298;2023-07-13T02:23:14;100919.84;;;16.29;70.97
24422;BME280;12600;53.326;-6.298;2023-07-13T02:26:04;100891.97;;;16.09;71.09
24422;BME280;12600;53.326;-6.298;2023-07-13T02:28:53;100916.25;;;16.28;71.00
24422;BME280;12600;53.326;-6.298;2023-07-13T02:31:44;100913.47;;;16.28;70.92
24422;BME280;12600;53.326;-6.298;2023-07-13T02:34:33;100921.31;;;16.26;70.91
24422;BME280;12600;53.326;-6.298;2023-07-13T02:37:24;100921.09;;;16.31;70.91
24422;BME280;12600;53.326;-6.298;2023-07-13T02:40:14;100915.94;;;16.30;70.94
24422;BME280;12600;53.326;-6.298;2023-07-13T02:43:04;100928.22;;;16.32;71.02
24422;BME280;12600;53.326;-6.298;2023-07-13T02:45:53;100922.69;;;16.32;71.03
24422;BME280;12600;53.326;-6.298;2023-07-13T02:48:44;100915.31;;;16.24;71.01
24422;BME280;12600;53.326;-6.298;2023-07-13T02:51:34;100919.34;;;16.27;71.13
24422;BME280;12600;53.326;-6.298;2023-07-13T02:54:24;100924.19;;;16.30;71.37
24422;BME280;12600;53.326;-6.298;2023-07-13T02:57:13;100921.44;;;16.30;71.21
24422;BME280;12600;53.326;-6.298;2023-07-13T03:00:04;100923.50;;;16.33;71.02
24422;BME280;12600;53.326;-6.298;2023-07-13T03:02:54;100921.09;;;16.31;70.95
24422;BME280;12600;53.326;-6.298;2023-07-13T03:05:47;100927.16;;;16.25;70.98
24422;BME280;12600;53.326;-6.298;2023-07-13T03:08:43;100930.63;;;16.21;71.12
24422;BME280;12600;53.326;-6.298;2023-07-13T03:11:33;100928.50;;;16.18;71.37
24422;BME280;12600;53.326;-6.298;2023-07-13T03:14:36;100922.09;;;16.14;71.09
24422;BME280;12600;53.326;-6.298;2023-07-13T03:17:27;100927.59;;;16.14;71.20
24422;BME280;12600;53.326;-6.298;2023-07-13T03:20:17;100924.38;;;16.12;71.31
24422;BME280;12600;53.326;-6.298;2023-07-13T03:23:08;100910.59;;;16.12;71.31
24422;BME280;12600;53.326;-6.298;2023-07-13T03:26:06;100917.13;;;16.08;71.64
24422;BME280;12600;53.326;-6.298;2023-07-13T03:28:56;100920.00;;;16.11;71.47
24422;BME280;12600;53.326;-6.298;2023-07-13T03:31:46;100917.81;;;16.05;71.14
24422;BME280;12600;53.326;-6.298;2023-07-13T03:34:35;100911.00;;;16.02;71.24
24422;BME280;12600;53.326;-6.298;2023-07-13T03:37:25;100913.09;;;16.05;71.03
24422;BME280;12600;53.326;-6.298;2023-07-13T03:40:17;100914.56;;;16.03;71.01
24422;BME280;12600;53.326;-6.298;2023-07-13T03:43:07;100918.00;;;16.00;71.18
24422;BME280;12600;53.326;-6.298;2023-07-13T03:45:56;100931.66;;;15.96;71.16
24422;BME280;12600;53.326;-6.298;2023-07-13T03:48:47;100926.03;;;15.92;71.31
24422;BME280;12600;53.326;-6.298;2023-07-13T03:51:37;100927.38;;;15.86;71.48
24422;BME280;12600;53.326;-6.298;2023-07-13T03:54:27;100931.16;;;15.82;71.77
24422;BME280;12600;53.326;-6.298;2023-07-13T03:57:18;100934.25;;;15.80;71.88
24422;BME280;12600;53.326;-6.298;2023-07-13T04:00:09;100936.16;;;15.80;72.02
24422;BME280;12600;53.326;-6.298;2023-07-13T04:03:04;100931.34;;;15.77;72.34
24422;BME280;12600;53.326;-6.298;2023-07-13T04:05:55;100917.22;;;15.78;72.54
24422;BME280;12600;53.326;-6.298;2023-07-13T04:08:49;100919.19;;;15.78;72.79
24422;BME280;12600;53.326;-6.298;2023-07-13T04:11:39;100930.13;;;15.86;72.81
24422;BME280;12600;53.326;-6.298;2023-07-13T04:14:30;100929.13;;;15.91;72.92
24422;BME280;12600;53.326;-6.298;2023-07-13T04:17:19;100926.13;;;15.96;72.75
24422;BME280;12600;53.326;-6.298;2023-07-13T04:20:09;100926.28;;;16.00;72.72
24422;BME280;12600;53.326;-6.298;2023-07-13T04:22:58;100934.34;;;16.05;72.68
24422;BME280;12600;53.326;-6.298;2023-07-13T04:25:52;100927.53;;;16.02;72.69
24422;BME280;12600;53.326;-6.298;2023-07-13T04:28:42;100937.56;;;16.07;72.36
24422;BME280;12600;53.326;-6.298;2023-07-13T04:31:33;100939.50;;;16.06;72.76
24422;BME280;12600;53.326;-6.298;2023-07-13T04:34:22;100948.97;;;16.17;72.75
24422;BME280;12600;53.326;-6.298;2023-07-13T04:37:12;100947.47;;;16.20;72.36
24422;BME280;12600;53.326;-6.298;2023-07-13T04:40:01;100935.88;;;16.14;72.21
24422;BME280;12600;53.326;-6.298;2023-07-13T04:42:51;100949.91;;;16.21;72.24
24422;BME280;12600;53.326;-6.298;2023-07-13T04:45:41;100945.75;;;16.15;72.35
24422;BME280;12600;53.326;-6.298;2023-07-13T04:48:32;100937.22;;;16.08;72.35
24422;BME280;12600;53.326;-6.298;2023-07-13T04:51:22;100952.59;;;16.09;72.21
24422;BME280;12600;53.326;-6.298;2023-07-13T04:54:11;100958.47;;;16.08;72.25
24422;BME280;12600;53.326;-6.298;2023-07-13T04:57:01;100960.28;;;16.04;72.30
24422;BME280;12600;53.326;-6.298;2023-07-13T04:59:51;100961.56;;;16.06;72.29
24422;BME280;12600;53.326;-6.298;2023-07-13T05:02:40;100962.38;;;16.07;72.33
24422;BME280;12600;53.326;-6.298;2023-07-13T05:05:31;100939.72;;;16.01;72.65
24422;BME280;12600;53.326;-6.298;2023-07-13T05:08:20;100952.94;;;16.08;72.70
24422;BME280;12600;53.326;-6.298;2023-07-13T05:11:10;100954.56;;;16.09;72.58
24422;BME280;12600;53.326;-6.298;2023-07-13T05:14:00;100962.84;;;16.09;72.64
24422;BME280;12600;53.326;-6.298;2023-07-13T05:16:49;100962.84;;;16.09;72.39
24422;BME280;12600;53.326;-6.298;2023-07-13T05:19:43;100958.47;;;16.08;72.80
24422;BME280;12600;53.326;-6.298;2023-07-13T05:22:34;100962.03;;;16.08;72.67
24422;BME280;12600;53.326;-6.298;2023-07-13T05:25:26;100965.38;;;16.14;72.88
24422;BME280;12600;53.326;-6.298;2023-07-13T05:28:19;100959.53;;;16.15;72.99
24422;BME280;12600;53.326;-6.298;2023-07-13T05:31:12;100957.03;;;16.22;73.43
24422;BME280;12600;53.326;-6.298;2023-07-13T05:34:02;100962.38;;;16.40;73.39
24422;BME280;12600;53.326;-6.298;2023-07-13T05:36:54;100968.50;;;16.58;73.55
24422;BME280;12600;53.326;-6.298;2023-07-13T05:39:49;100960.00;;;16.63;73.36
24422;BME280;12600;53.326;-6.298;2023-07-13T05:42:39;100960.59;;;16.68;73.40
24422;BME280;12600;53.326;-6.298;2023-07-13T05:45:28;100966.13;;;16.81;73.45
24422;BME280;12600;53.326;-6.298;2023-07-13T05:48:18;100971.75;;;16.84;73.34
24422;BME280;12600;53.326;-6.298;2023-07-13T05:51:09;100973.84;;;16.87;73.02
24422;BME280;12600;53.326;-6.298;2023-07-13T05:53:59;100971.91;;;16.88;73.11
24422;BME280;12600;53.326;-6.298;2023-07-13T05:56:50;100973.84;;;16.99;73.24
24422;BME280;12600;53.326;-6.298;2023-07-13T05:59:39;100966.59;;;17.07;73.29
24422;BME280;12600;53.326;-6.298;2023-07-13T06:02:28;100972.72;;;17.13;73.13
24422;BME280;12600;53.326;-6.298;2023-07-13T06:05:18;100972.63;;;17.09;72.85
24422;BME280;12600;53.326;-6.298;2023-07-13T06:08:08;100978.22;;;17.13;72.77
24422;BME280;12600;53.326;-6.298;2023-07-13T06:11:03;100983.84;;;17.16;72.72
24422;BME280;12600;53.326;-6.298;2023-07-13T06:13:55;100952.38;;;16.93;72.52
24422;BME280;12600;53.326;-6.298;2023-07-13T06:16:45;100976.50;;;17.08;72.45
24422;BME280;12600;53.326;-6.298;2023-07-13T06:19:34;100998.00;;;17.15;72.72
24422;BME280;12600;53.326;-6.298;2023-07-13T06:22:24;100995.38;;;17.18;72.46
24422;BME280;12600;53.326;-6.298;2023-07-13T06:25:13;100998.94;;;17.19;72.54
24422;BME280;12600;53.326;-6.298;2023-07-13T06:28:03;100999.53;;;17.12;72.10
24422;BME280;12600;53.326;-6.298;2023-07-13T06:30:54;101012.31;;;17.17;72.17
24422;BME280;12600;53.326;-6.298;2023-07-13T06:33:43;101005.50;;;17.14;72.36
24422;BME280;12600;53.326;-6.298;2023-07-13T06:36:33;101012.84;;;17.22;72.20
24422;BME280;12600;53.326;-6.298;2023-07-13T06:39:24;101006.19;;;17.36;72.60
24422;BME280;12600;53.326;-6.298;2023-07-13T06:42:15;101005.34;;;17.47;72.43
24422;BME280;12600;53.326;-6.298;2023-07-13T06:45:06;101006.16;;;17.60;71.84
24422;BME280;12600;53.326;-6.298;2023-07-13T06:47:57;101001.53;;;17.64;71.44
24422;BME280;12600;53.326;-6.298;2023-07-13T06:50:50;100992.56;;;17.67;70.75
24422;BME280;12600;53.326;-6.298;2023-07-13T06:53:41;101002.34;;;17.77;71.09
24422;BME280;12600;53.326;-6.298;2023-07-13T06:56:31;101008.09;;;17.84;70.94
24422;BME280;12600;53.326;-6.298;2023-07-13T06:59:20;101009.47;;;17.90;70.10
24422;BME280;12600;53.326;-6.298;2023-07-13T07:02:11;101006.56;;;17.99;70.71
24422;BME280;12600;53.326;-6.298;2023-07-13T07:05:02;101009.41;;;18.02;70.23
24422;BME280;12600;53.326;-6.298;2023-07-13T07:07:53;100999.44;;;17.98;70.31
24422;BME280;12600;53.326;-6.298;2023-07-13T07:10:43;101002.84;;;18.07;70.01
24422;BME280;12600;53.326;-6.298;2023-07-13T07:13:33;101019.75;;;18.17;69.41
24422;BME280;12600;53.326;-6.298;2023-07-13T07:16:24;101012.97;;;18.15;68.93
24422;BME280;12600;53.326;-6.298;2023-07-13T07:19:13;101011.56;;;18.21;68.98
24422;BME280;12600;53.326;-6.298;2023-07-13T07:22:06;101019.22;;;18.28;68.82
24422;BME280;12600;53.326;-6.298;2023-07-13T07:24:55;101030.84;;;18.33;68.82
24422;BME280;12600;53.326;-6.298;2023-07-13T07:27:45;101019.78;;;18.33;68.61
24422;BME280;12600;53.326;-6.298;2023-07-13T07:30:37;101028.28;;;18.40;68.57
24422;BME280;12600;53.326;-6.298;2023-07-13T07:33:33;101016.50;;;18.43;68.07
24422;BME280;12600;53.326;-6.298;2023-07-13T07:36:23;101027.97;;;18.58;68.34
24422;BME280;12600;53.326;-6.298;2023-07-13T07:39:17;101032.22;;;18.67;68.08
24422;BME280;12600;53.326;-6.298;2023-07-13T07:42:06;101032.94;;;18.80;68.13
24422;BME280;12600;53.326;-6.298;2023-07-13T07:44:56;101033.38;;;18.82;66.84
24422;BME280;12600;53.326;-6.298;2023-07-13T07:47:45;101037.75;;;18.83;66.36
24422;BME280;12600;53.326;-6.298;2023-07-13T07:50:35;101032.34;;;18.87;66.93
24422;BME280;12600;53.326;-6.298;2023-07-13T07:53:26;101040.66;;;18.87;66.20
24422;BME280;12600;53.326;-6.298;2023-07-13T07:56:19;101048.59;;;18.88;66.08
24422;BME280;12600;53.326;-6.298;2023-07-13T07:59:11;101041.00;;;18.85;66.33
24422;BME280;12600;53.326;-6.298;2023-07-13T08:02:04;101049.75;;;18.87;66.15
24422;BME280;12600;53.326;-6.298;2023-07-13T08:05:14;101038.41;;;18.92;66.42
24422;BME280;12600;53.326;-6.298;2023-07-13T08:08:07;101045.66;;;18.97;66.16
24422;BME280;12600;53.326;-6.298;2023-07-13T08:10:56;101048.41;;;18.97;65.85
24422;BME280;12600;53.326;-6.298;2023-07-13T08:14:07;101051.13;;;19.09;66.10
24422;BME280;12600;53.326;-6.298;2023-07-13T08:16:57;101051.38;;;19.20;65.91
24422;BME280;12600;53.326;-6.298;2023-07-13T08:19:46;101038.41;;;19.24;65.21
24422;BME280;12600;53.326;-6.298;2023-07-13T08:22:35;101041.53;;;19.38;65.62
24422;BME280;12600;53.326;-6.298;2023-07-13T08:25:25;101044.47;;;19.45;65.31
24422;BME280;12600;53.326;-6.298;2023-07-13T08:28:14;101054.47;;;19.50;64.09
24422;BME280;12600;53.326;-6.298;2023-07-13T08:31:06;101051.19;;;19.44;63.17
24422;BME280;12600;53.326;-6.298;2023-07-13T08:33:56;101057.75;;;19.55;63.54
24422;BME280;12600;53.326;-6.298;2023-07-13T08:36:46;101057.09;;;19.59;62.88
24422;BME280;12600;53.326;-6.298;2023-07-13T08:39:35;101042.66;;;19.53;62.74
24422;BME280;12600;53.326;-6.298;2023-07-13T08:42:33;101040.47;;;19.59;62.44
24422;BME280;12600;53.326;-6.298;2023-07-13T08:45:34;101046.44;;;19.61;62.39
24422;BME280;12600;53.326;-6.298;2023-07-13T08:48:32;101052.16;;;19.68;61.87
24422;BME280;12600;53.326;-6.298;2023-07-13T08:51:42;101037.13;;;19.69;60.96
24422;BME280;12600;53.326;-6.298;2023-07-13T08:54:36;101041.59;;;19.73;60.23
24422;BME280;12600;53.326;-6.298;2023-07-13T08:57:32;101031.97;;;19.87;59.48
24422;BME280;12600;53.326;-6.298;2023-07-13T09:00:34;101045.28;;;20.35;59.34
24422;BME280;12600;53.326;-6.298;2023-07-13T09:03:36;100989.91;;;20.62;60.79
24422;BME280;12600;53.326;-6.298;2023-07-13T09:06:37;101030.84;;;21.34;59.05
24422;BME280;12600;53.326;-6.298;2023-07-13T09:09:41;101044.19;;;21.77;58.63
24422;BME280;12600;53.326;-6.298;2023-07-13T09:12:44;101031.81;;;22.31;57.14
24422;BME280;12600;53.326;-6.298;2023-07-13T09:15:39;101028.50;;;22.93;54.88
24422;BME280;12600;53.326;-6.298;2023-07-13T09:18:35;101019.25;;;23.26;54.12
24422;BME280;12600;53.326;-6.298;2023-07-13T09:21:29;101033.63;;;23.35;54.10
24422;BME280;12600;53.326;-6.298;2023-07-13T09:24:38;101031.47;;;23.14;53.28
24422;BME280;12600;53.326;-6.298;2023-07-13T09:27:33;101028.44;;;22.86;51.93
24422;BME280;12600;53.326;-6.298;2023-07-13T09:30:33;101034.19;;;22.67;52.73
24422;BME280;12600;53.326;-6.298;2023-07-13T09:33:23;101030.72;;;22.40;52.56
24422;BME280;12600;53.326;-6.298;2023-07-13T09:36:22;101022.97;;;22.22;52.43
24422;BME280;12600;53.326;-6.298;2023-07-13T09:39:20;101036.34;;;22.13;52.11
24422;BME280;12600;53.326;-6.298;2023-07-13T09:42:17;101042.34;;;21.89;51.83
24422;BME280;12600;53.326;-6.298;2023-07-13T09:45:07;101043.72;;;21.72;52.13
24422;BME280;12600;53.326;-6.298;2023-07-13T09:48:05;101034.16;;;21.69;51.83
24422;BME280;12600;53.326;-6.298;2023-07-13T09:50:56;101047.50;;;21.87;51.70
24422;BME280;12600;53.326;-6.298;2023-07-13T09:53:47;101031.66;;;22.21;52.18
24422;BME280;12600;53.326;-6.298;2023-07-13T09:56:36;101050.47;;;22.65;50.72
24422;BME280;12600;53.326;-6.298;2023-07-13T09:59:31;101035.53;;;22.80;49.31
24422;BME280;12600;53.326;-6.298;2023-07-13T10:02:26;101040.72;;;23.26;47.79
24422;BME280;12600;53.326;-6.298;2023-07-13T10:05:16;101043.59;;;23.91;48.79
24422;BME280;12600;53.326;-6.298;2023-07-13T10:08:23;101038.25;;;24.41;46.32
24422;BME280;12600;53.326;-6.298;2023-07-13T10:11:21;101038.31;;;24.84;45.86
24422;BME280;12600;53.326;-6.298;2023-07-13T10:14:15;101045.50;;;24.71;43.13
24422;BME280;12600;53.326;-6.298;2023-07-13T10:17:12;101049.44;;;24.52;44.42
24422;BME280;12600;53.326;-6.298;2023-07-13T10:20:05;101044.22;;;24.40;44.42
24422;BME280;12600;53.326;-6.298;2023-07-13T10:23:04;101054.13;;;24.26;44.13
24422;BME280;12600;53.326;-6.298;2023-07-13T10:25:55;101047.31;;;24.17;44.34
24422;BME280;12600;53.326;-6.298;2023-07-13T10:28:52;101048.34;;;23.84;43.88
24422;BME280;12600;53.326;-6.298;2023-07-13T10:31:45;101034.91;;;23.45;43.98
24422;BME280;12600;53.326;-6.298;2023-07-13T10:34:35;101050.66;;;23.23;44.49
24422;BME280;12600;53.326;-6.298;2023-07-13T10:37:29;101043.13;;;23.27;44.73
24422;BME280;12600;53.326;-6.298;2023-07-13T10:40:27;101029.88;;;23.65;44.92
24422;BME280;12600;53.326;-6.298;2023-07-13T10:43:27;101050.69;;;23.82;42.45
24422;BME280;12600;53.326;-6.298;2023-07-13T10:46:23;101049.94;;;23.85;43.15
24422;BME280;12600;53.326;-6.298;2023-07-13T10:49:16;101044.34;;;23.88;42.67
24422;BME280;12600;53.326;-6.298;2023-07-13T10:55:37;101042.47;;;24.14;41.91
24422;BME280;12600;53.326;-6.298;2023-07-13T10:58:33;101044.59;;;24.38;41.71
24422;BME280;12600;53.326;-6.298;2023-07-13T11:01:24;101046.22;;;24.43;40.79
24422;BME280;12600;53.326;-6.298;2023-07-13T11:04:13;101049.81;;;24.43;41.41
24422;BME280;12600;53.326;-6.298;2023-07-13T11:07:19;101046.06;;;24.11;41.56
24422;BME280;12600;53.326;-6.298;2023-07-13T11:10:51;101045.16;;;23.89;41.38
24422;BME280;12600;53.326;-6.298;2023-07-13T11:13:58;101037.88;;;23.73;42.00
24422;BME280;12600;53.326;-6.298;2023-07-13T11:16:52;101041.88;;;23.72;41.79
24422;BME280;12600;53.326;-6.298;2023-07-13T11:19:43;101037.56;;;23.89;41.44
24422;BME280;12600;53.326;-6.298;2023-07-13T11:22:43;101035.03;;;24.36;40.58
24422;BME280;12600;53.326;-6.298;2023-07-13T11:25:36;101037.50;;;24.66;39.77
24422;BME280;12600;53.326;-6.298;2023-07-13T11:28:29;101032.34;;;24.82;39.81
24422;BME280;12600;53.326;-6.298;2023-07-13T11:31:20;101048.69;;;24.66;39.29
24422;BME280;12600;53.326;-6.298;2023-07-13T11:34:14;101042.53;;;24.28;39.78
24422;BME280;12600;53.326;-6.298;2023-07-13T11:37:10;101037.94;;;23.77;40.10
24422;BME280;12600;53.326;-6.298;2023-07-13T11:40:05;101043.28;;;23.45;41.09
24422;BME280;12600;53.326;-6.298;2023-07-13T11:42:59;101044.28;;;23.23;41.64
24422;BME280;12600;53.326;-6.298;2023-07-13T11:45:50;101042.09;;;23.02;42.07
24422;BME280;12600;53.326;-6.298;2023-07-13T11:48:41;101045.22;;;22.93;42.51
24422;BME280;12600;53.326;-6.298;2023-07-13T11:51:35;100998.78;;;22.67;42.99
24422;BME280;12600;53.326;-6.298;2023-07-13T11:54:30;101030.41;;;22.85;43.08
24422;BME280;12600;53.326;-6.298;2023-07-13T11:57:25;101038.44;;;22.91;43.27
24422;BME280;12600;53.326;-6.298;2023-07-13T12:00:18;101037.97;;;22.85;43.29
24422;BME280;12600;53.326;-6.298;2023-07-13T12:03:12;101033.53;;;22.80;43.66
24422;BME280;12600;53.326;-6.298;2023-07-13T12:06:06;101017.16;;;22.75;43.84
24422;BME280;12600;53.326;-6.298;2023-07-13T12:09:15;101024.78;;;22.82;43.87
24422;BME280;12600;53.326;-6.298;2023-07-13T12:12:11;101023.22;;;22.84;44.27
24422;BME280;12600;53.326;-6.298;2023-07-13T12:15:06;101032.59;;;23.03;43.74
24422;BME280;12600;53.326;-6.298;2023-07-13T12:17:56;101027.59;;;23.26;44.22
24422;BME280;12600;53.326;-6.298;2023-07-13T12:20:49;101030.41;;;23.33;42.72
24422;BME280;12600;53.326;-6.298;2023-07-13T12:23:44;101024.94;;;23.44;41.97
24422;BME280;12600;53.326;-6.298;2023-07-13T12:26:35;101027.00;;;23.58;42.12
24422;BME280;12600;53.326;-6.298;2023-07-13T12:29:25;101022.19;;;23.51;41.82
24422;BME280;12600;53.326;-6.298;2023-07-13T12:32:17;101042.91;;;23.50;41.79
24422;BME280;12600;53.326;-6.298;2023-07-13T12:35:15;101016.97;;;23.42;41.96
24422;BME280;12600;53.326;-6.298;2023-07-13T12:38:11;101028.19;;;23.53;41.97
24422;BME280;12600;53.326;-6.298;2023-07-13T12:41:01;101027.75;;;23.48;41.10
24422;BME280;12600;53.326;-6.298;2023-07-13T12:43:52;101037.03;;;23.66;41.63
24422;BME280;12600;53.326;-6.298;2023-07-13T12:46:57;101017.09;;;23.60;41.58
24422;BME280;12600;53.326;-6.298;2023-07-13T12:49:49;101013.91;;;23.62;41.92
24422;BME280;12600;53.326;-6.298;2023-07-13T12:52:39;101018.63;;;23.58;42.17
24422;BME280;12600;53.326;-6.298;2023-07-13T12:55:42;101013.38;;;23.45;42.49
24422;BME280;12600;53.326;-6.298;2023-07-13T12:58:38;101005.31;;;23.33;42.43
24422;BME280;12600;53.326;-6.298;2023-07-13T13:01:34;101002.44;;;23.19;42.37
24422;BME280;12600;53.326;-6.298;2023-07-13T13:04:25;101006.06;;;23.23;42.60
24422;BME280;12600;53.326;-6.298;2023-07-13T13:07:14;101011.22;;;23.21;42.68
24422;BME280;12600;53.326;-6.298;2023-07-13T13:10:11;101013.69;;;23.30;42.92
24422;BME280;12600;53.326;-6.298;2023-07-13T13:13:01;100994.59;;;23.35;43.29
24422;BME280;12600;53.326;-6.298;2023-07-13T13:15:51;101004.34;;;23.63;43.32
24422;BME280;12600;53.326;-6.298;2023-07-13T13:18:42;100995.72;;;23.86;42.20
24422;BME280;12600;53.326;-6.298;2023-07-13T13:21:32;101001.41;;;24.11;42.01
24422;BME280;12600;53.326;-6.298;2023-07-13T13:24:26;100989.50;;;24.28;40.55
24422;BME280;12600;53.326;-6.298;2023-07-13T13:27:18;100991.59;;;24.67;39.27
24422;BME280;12600;53.326;-6.298;2023-07-13T13:30:11;100979.22;;;24.93;39.20
24422;BME280;12600;53.326;-6.298;2023-07-13T13:33:01;100980.88;;;25.12;39.31
24422;BME280;12600;53.326;-6.298;2023-07-13T13:35:52;100987.22;;;25.01;39.25
24422;BME280;12600;53.326;-6.298;2023-07-13T13:38:41;100981.66;;;24.80;38.97
24422;BME280;12600;53.326;-6.298;2023-07-13T13:41:31;100986.00;;;24.77;39.58
24422;BME280;12600;53.326;-6.298;2023-07-13T13:44:21;100981.22;;;24.67;39.45
24422;BME280;12600;53.326;-6.298;2023-07-13T13:47:27;100983.22;;;24.60;39.47
24422;BME280;12600;53.326;-6.298;2023-07-13T13:50:21;100972.81;;;24.53;39.01
24422;BME280;12600;53.326;-6.298;2023-07-13T13:53:13;100976.41;;;24.46;39.03
24422;BME280;12600;53.326;-6.298;2023-07-13T13:56:04;100975.19;;;24.40;39.04
24422;BME280;12600;53.326;-6.298;2023-07-13T13:58:54;100983.59;;;24.40;39.54
24422;BME280;12600;53.326;-6.298;2023-07-13T14:01:45;100970.75;;;24.25;39.66
24422;BME280;12600;53.326;-6.298;2023-07-13T14:04:37;100979.88;;;24.08;40.02
24422;BME280;12600;53.326;-6.298;2023-07-13T14:07:27;100971.06;;;23.98;40.55
24422;BME280;12600;53.326;-6.298;2023-07-13T14:10:20;100976.63;;;23.95;41.19
24422;BME280;12600;53.326;-6.298;2023-07-13T14:13:17;100961.91;;;24.12;41.59
24422;BME280;12600;53.326;-6.298;2023-07-13T14:16:12;100970.81;;;24.39;41.77
24422;BME280;12600;53.326;-6.298;2023-07-13T14:19:02;100965.66;;;24.73;41.33
24422;BME280;12600;53.326;-6.298;2023-07-13T14:21:53;100972.06;;;24.88;40.95
24422;BME280;12600;53.326;-6.298;2023-07-13T14:24:42;100961.66;;;24.85;40.65
24422;BME280;12600;53.326;-6.298;2023-07-13T14:27:33;100968.88;;;24.79;41.13
24422;BME280;12600;53.326;-6.298;2023-07-13T14:30:22;100958.88;;;24.64;41.15
24422;BME280;12600;53.326;-6.298;2023-07-13T14:33:12;100966.84;;;24.47;41.17
24422;BME280;12600;53.326;-6.298;2023-07-13T14:36:02;100963.97;;;24.26;41.90
24422;BME280;12600;53.326;-6.298;2023-07-13T14:38:52;100973.44;;;24.04;42.62
24422;BME280;12600;53.326;-6.298;2023-07-13T14:41:42;100988.97;;;23.90;44.07
24422;BME280;12600;53.326;-6.298;2023-07-13T14:44:33;100989.94;;;23.54;46.38
24422;BME280;12600;53.326;-6.298;2023-07-13T14:47:23;100991.25;;;23.15;48.76
24422;BME280;12600;53.326;-6.298;2023-07-13T14:50:15;100987.94;;;22.99;49.69
24422;BME280;12600;53.326;-6.298;2023-07-13T14:53:09;100983.09;;;22.93;49.76
24422;BME280;12600;53.326;-6.298;2023-07-13T14:55:58;100969.63;;;22.95;50.09